CW8842 Weather Reports


Display with metric or nautical units.
time (UTC)temp
F
wind
direction
speed
MPH
gust
MPH
rain 1hr
in
rain 24hr
in
rain mn
in
humidity
%
barometer
mb
20190418152622 46 160 4.0 9.0 0.00 0.00 0.00 60 1044.0
20190418151624 46 172 2.0 7.0 0.00 0.00 0.00 60 1044.0
20190418150632 46 174 1.0 3.0 0.00 0.00 0.00 65 1043.9
20190418145618 44 174 1.0 3.0 0.00 0.00 0.00 70 1043.9
20190418144621 42 175 0.0 1.0 0.00 0.00 0.00 71 1043.9
20190418143622 40 175 0.0 2.0 0.00 0.00 0.00 74 1044.0
20190418142625 39 175 1.0 3.0 0.00 0.00 0.00 77 1043.9
20190418141632 37 175 0.0 3.0 0.00 0.00 0.00 80 1043.8
20190418140623 36 175 3.0 4.0 0.00 0.00 0.00 81 1043.7
20190418135629 37 176 2.0 4.0 0.00 0.00 0.00 80 1043.6
20190418134632 36 176 0.0 0.0 0.00 0.00 0.00 80 1043.2
20190418133638 37 176 0.0 1.0 0.00 0.00 0.00 80 1043.2
20190418132622 37 176 0.0 3.0 0.00 0.00 0.00 81 1043.2
20190418131628 37 176 1.0 4.0 0.00 0.00 0.00 80 1043.1
20190418130618 37 175 3.0 5.0 0.00 0.00 0.00 82 1043.0
20190418125625 36 170 0.0 0.0 0.00 0.00 0.00 80 1042.9
20190418123628 37 170 0.0 0.0 0.00 0.00 0.00 80 1042.8
20190418122630 37 169 0.0 1.0 0.00 0.00 0.00 81 1042.8
20190418121616 37 169 0.0 0.0 0.00 0.00 0.00 83 1042.7
20190418120622 37 170 0.0 0.0 0.00 0.00 0.00 83 1042.6
20190418115624 37 169 0.0 0.0 0.00 0.00 0.00 83 1042.6
20190418114630 37 170 0.0 0.0 0.00 0.00 0.00 82 1042.6
20190418113618 37 170 0.0 0.0 0.00 0.00 0.00 81 1042.7
20190418112621 37 170 0.0 2.0 0.00 0.00 0.00 81 1042.6
20190418111629 37 170 0.0 3.0 0.00 0.00 0.00 82 1042.6
20190418110632 38 170 2.0 6.0 0.00 0.00 0.00 80 1042.6
20190418105638 38 49 0.0 2.0 0.00 0.00 0.00 82 1042.5
20190418104628 38 49 0.0 0.0 0.00 0.00 0.00 82 1042.4
20190418103630 37 49 1.0 4.0 0.00 0.00 0.00 82 1042.3
20190418102637 38 49 0.0 2.0 0.00 0.00 0.00 81 1042.4
20190418101622 38 49 3.0 6.0 0.00 0.00 0.00 82 1042.2
20190418100628 38 9 3.0 5.0 0.00 0.00 0.00 79 1042.0
20190418095633 38 223 0.0 0.0 0.00 0.00 0.00 80 1042.0
20190418094621 38 222 0.0 3.0 0.00 0.00 0.00 81 1041.9
20190418093624 38 223 0.0 0.0 0.00 0.00 0.00 80 1042.0
20190418092628 39 223 1.0 3.0 0.00 0.00 0.00 79 1042.0
20190418090638 39 223 0.0 0.0 0.00 0.00 0.00 77 1041.9
20190418085620 40 222 1.0 2.0 0.00 0.00 0.00 77 1042.0
20190418084628 40 223 1.0 3.0 0.00 0.00 0.00 76 1041.9
20190418083631 40 223 0.0 0.0 0.00 0.00 0.00 77 1041.7
20190418082621 40 223 0.0 0.0 0.00 0.00 0.00 79 1041.9
20190418081623 39 223 0.0 0.0 0.00 0.00 0.00 78 1041.8
20190418080632 40 223 0.0 3.0 0.00 0.00 0.00 77 1041.7
20190418075635 40 223 2.0 4.0 0.00 0.00 0.00 78 1041.7
20190418074618 39 223 0.0 4.0 0.00 0.00 0.00 75 1041.7
20190418073626 40 223 4.0 6.0 0.00 0.00 0.00 74 1041.7
20190418072630 41 306 1.0 2.0 0.00 0.00 0.00 74 1041.7
20190418071637 41 306 0.0 2.0 0.00 0.00 0.00 74 1041.6
20190418070626 41 306 0.0 2.0 0.00 0.00 0.00 74 1041.7
20190418065627 41 306 2.0 5.0 0.00 0.00 0.00 73 1041.6
20190418064631 42 196 0.0 0.0 0.00 0.00 0.00 73 1041.5
20190418063621 41 196 0.0 3.0 0.00 0.00 0.00 73 1041.5
20190418062623 41 196 0.0 4.0 0.00 0.00 0.00 73 1041.5
20190418061628 41 196 0.0 1.0 0.00 0.00 0.00 72 1041.3
20190418060631 42 196 1.0 2.0 0.00 0.00 0.00 71 1041.2
20190418055621 43 196 0.0 3.0 0.00 0.00 0.00 69 1041.1
20190418054624 43 198 1.0 4.0 0.00 0.00 0.00 68 1041.0
20190418053628 44 221 0.0 2.0 0.00 0.00 0.00 67 1041.1
20190418052631 44 221 1.0 9.0 0.00 0.00 0.00 66 1040.9
20190418051618 44 132 1.0 5.0 0.00 0.00 0.00 68 1040.9
20190418050621 43 99 0.0 0.0 0.00 0.00 0.00 70 1040.9
20190418045623 43 99 1.0 3.0 0.00 0.00 0.00 71 1040.9
20190418044626 43 99 1.0 5.0 0.00 0.00 0.00 71 1040.9
20190418043634 43 99 3.0 5.0 0.00 0.00 0.00 71 1041.0
20190418042618 43 198 1.0 4.0 0.00 0.00 0.00 72 1040.9
20190418041638 43 190 2.0 3.0 0.00 0.00 0.00 73 1040.8
20190418040625 42 190 2.0 3.0 0.00 0.00 0.00 72 1040.8
20190418035627 42 190 1.0 3.0 0.00 0.00 0.00 71 1040.5
20190418034630 42 190 0.0 0.0 0.00 0.00 0.00 71 1040.3
20190418033635 43 190 1.0 2.0 0.00 0.00 0.00 70 1040.0
20190418032638 43 190 0.0 2.0 0.00 0.00 0.00 69 1040.0
20190418031621 44 190 2.0 6.0 0.00 0.00 0.00 69 1039.9
20190418030629 44 192 4.0 7.0 0.00 0.00 0.00 68 1039.6
20190418025628 45 191 2.0 3.0 0.00 0.00 0.00 68 1039.5
20190418024631 45 191 3.0 4.0 0.00 0.00 0.00 68 1039.6
20190418023634 45 191 1.0 5.0 0.00 0.00 0.00 67 1039.5
20190418022622 46 176 2.0 3.0 0.00 0.00 0.00 65 1039.4
20190418021625 46 196 1.0 3.0 0.00 0.00 0.00 67 1039.6
20190418020633 46 196 2.0 3.0 0.00 0.00 0.00 66 1039.6
20190418015623 47 195 2.0 3.0 0.00 0.00 0.00 65 1039.5
20190418014627 47 196 0.0 2.0 0.00 0.00 0.00 65 1039.5
20190418011626 47 198 2.0 6.0 0.00 0.00 0.00 63 1039.5
20190418010634 47 195 3.0 8.0 0.00 0.00 0.00 62 1039.4
20190418005620 47 196 3.0 5.0 0.00 0.00 0.00 62 1039.4
20190418004630 47 188 1.0 4.0 0.00 0.00 0.00 64 1039.3
20190418003634 47 179 4.0 7.0 0.00 0.00 0.00 63 1039.2
20190418002637 47 165 5.0 7.0 0.00 0.00 0.00 64 1039.1
20190418001620 47 217 2.0 5.0 0.00 0.00 0.00 64 1039.2
20190418000623 47 360 3.0 6.0 0.00 0.00 0.00 63 1039.2
20190417235628 47 25 1.0 5.0 0.00 0.00 0.00 64 1039.0
20190417234631 47 77 2.0 8.0 0.00 0.00 0.00 61 1039.0
20190417233623 49 360 3.0 7.0 0.00 0.00 0.00 58 1039.0
20190417232626 50 197 2.0 7.0 0.00 0.00 0.00 61 1038.8
20190417231629 49 210 7.0 14.0 0.00 0.00 0.00 60 1038.8
20190417230632 48 194 5.0 13.0 0.00 0.00 0.00 61 1038.8
20190417225632 48 191 5.0 16.0 0.00 0.00 0.00 61 1038.8
20190417224621 49 175 6.0 13.0 0.00 0.00 0.00 60 1038.7
20190417223631 49 87 5.0 12.0 0.00 0.00 0.00 59 1038.7
20190417222634 48 199 5.0 15.0 0.00 0.00 0.00 64 1038.6
20190417221638 47 227 4.0 18.0 0.00 0.00 0.00 64 1038.7
20190417220622 46 172 6.0 15.0 0.00 0.00 0.00 63 1038.7
20190417215623 46 195 9.0 13.0 0.00 0.01 0.00 65 1038.8
20190417214629 45 195 6.0 11.0 0.00 0.01 0.00 65 1039.0
20190417213619 45 199 6.0 8.0 0.00 0.01 0.00 63 1039.0
20190417212623 45 163 4.0 8.0 0.00 0.01 0.00 65 1039.0
20190417211631 46 208 3.0 11.0 0.00 0.01 0.00 63 1039.0
20190417210634 45 60 3.0 8.0 0.00 0.01 0.00 65 1038.8
20190417205636 45 13 3.0 7.0 0.00 0.08 0.00 64 1038.8
20190417204638 45 342 3.0 9.0 0.00 0.08 0.00 63 1038.7
20190417203631 46 151 3.0 10.0 0.00 0.08 0.00 64 1038.4
20190417202634 46 24 3.0 8.0 0.00 0.08 0.00 65 1038.4
20190417201620 46 224 5.0 11.0 0.00 0.08 0.00 64 1038.4
20190417200629 46 213 5.0 16.0 0.00 0.08 0.00 63 1038.2
20190417195633 46 175 7.0 15.0 0.00 0.10 0.00 66 1038.4
20190417194637 45 130 2.0 7.0 0.00 0.10 0.00 66 1038.8
20190417193620 45 293 4.0 8.0 0.00 0.10 0.00 60 1038.8
20190417192628 45 32 4.0 7.0 0.00 0.10 0.00 60 1038.6
20190417191631 45 337 5.0 14.0 0.00 0.10 0.00 59 1038.8
20190417190622 45 344 12.0 16.0 0.00 0.10 0.00 57 1039.0
20190417185625 45 328 10.0 17.0 0.00 0.16 0.00 60 1038.9
20190417184628 45 355 11.0 19.0 0.00 0.16 0.00 59 1038.8
20190417183630 45 34 11.0 19.0 0.00 0.16 0.00 58 1038.9
20190417182633 44 12 10.0 16.0 0.00 0.16 0.00 61 1038.9
20190417181623 43 333 6.0 11.0 0.00 0.16 0.00 60 1038.8
20190417180633 43 346 9.0 20.0 0.00 0.16 0.00 60 1038.9
20190417175618 43 331 6.0 15.0 0.00 0.24 0.00 60 1038.8
20190417174630 43 344 8.0 13.0 0.00 0.24 0.00 59 1038.8
20190417173633 43 337 10.0 17.0 0.00 0.24 0.00 60 1038.6
20190417172637 43 63 5.0 10.0 0.00 0.24 0.00 59 1038.6
20190417171624 43 5 5.0 12.0 0.00 0.24 0.00 59 1038.5
20190417170630 43 346 8.0 13.0 0.00 0.24 0.00 58 1038.2
20190417165630 43 39 1.0 9.0 0.00 0.29 0.00 57 1038.1
20190417164633 43 157 2.0 5.0 0.00 0.29 0.00 57 1038.0
20190417163638 43 311 3.0 6.0 0.00 0.29 0.00 59 1037.9
20190417162621 43 42 7.0 8.0 0.00 0.29 0.00 60 1037.7
20190417161625 43 11 3.0 6.0 0.00 0.29 0.00 60 1037.6
20190417160633 43 189 3.0 5.0 0.00 0.29 0.00 63 1037.5
20190417155617 43 108 0.0 4.0 0.00 0.31 0.00 62 1037.5
20190417154624 42 196 0.0 3.0 0.00 0.31 0.00 66 1037.4
20190417153628 42 196 0.0 2.0 0.00 0.31 0.00 69 1037.3